createdAt,value
2018-10-05T00:02:24.345Z,4.10
2018-10-05T00:04:52.076Z,4.30
2018-10-05T00:07:19.817Z,3.87
2018-10-05T00:09:47.542Z,4.77
2018-10-05T00:12:15.254Z,4.50
2018-10-05T00:14:42.982Z,4.53
2018-10-05T00:17:11.044Z,4.00
2018-10-05T00:19:38.756Z,4.33
2018-10-05T00:22:06.637Z,4.40
2018-10-05T00:24:34.373Z,4.43
2018-10-05T00:27:02.088Z,4.80
2018-10-05T00:29:29.802Z,4.33
2018-10-05T00:31:57.508Z,4.00
2018-10-05T00:34:25.213Z,3.93
2018-10-05T00:36:52.925Z,3.97
2018-10-05T00:39:20.648Z,4.23
2018-10-05T00:41:48.353Z,4.40
2018-10-05T00:44:16.067Z,4.07
2018-10-05T00:46:43.868Z,4.97
2018-10-05T00:49:11.591Z,4.30
2018-10-05T00:51:39.308Z,4.83
2018-10-05T00:54:07.041Z,5.07
2018-10-05T00:56:34.763Z,4.90
2018-10-05T00:59:02.499Z,4.47
2018-10-05T01:01:30.236Z,4.43
2018-10-05T01:03:57.965Z,4.30
2018-10-05T01:06:25.681Z,4.80
2018-10-05T01:08:53.385Z,4.40
2018-10-05T01:11:21.159Z,4.60
2018-10-05T01:13:48.855Z,4.63
2018-10-05T01:16:16.573Z,4.90
2018-10-05T01:18:44.277Z,4.30
2018-10-05T01:21:11.997Z,4.57
2018-10-05T01:23:39.726Z,4.57
2018-10-05T01:26:07.429Z,4.20
2018-10-05T01:28:35.145Z,5.00
2018-10-05T01:31:02.878Z,4.80
2018-10-05T01:33:30.600Z,4.73
2018-10-05T01:35:58.328Z,5.07
2018-10-05T01:38:26.051Z,4.20
2018-10-05T01:40:53.772Z,4.63
2018-10-05T01:43:21.550Z,4.00
2018-10-05T01:45:49.264Z,4.20
2018-10-05T01:48:16.977Z,4.33
2018-10-05T01:50:44.682Z,4.87
2018-10-05T01:53:12.406Z,4.70
2018-10-05T01:55:40.124Z,4.70
2018-10-05T01:58:07.851Z,4.17
2018-10-05T02:00:35.564Z,4.47
2018-10-05T02:03:03.262Z,4.50
2018-10-05T02:05:31.389Z,4.93
2018-10-05T02:07:59.089Z,4.07
2018-10-05T02:10:26.793Z,4.43
2018-10-05T02:12:54.498Z,4.50
2018-10-05T02:15:22.189Z,4.23
2018-10-05T02:17:49.907Z,4.20
2018-10-05T02:20:17.644Z,4.43
2018-10-05T02:22:45.372Z,4.80
2018-10-05T02:25:13.080Z,4.70
2018-10-05T02:27:40.895Z,4.20
2018-10-05T02:30:08.552Z,4.50
2018-10-05T02:32:36.292Z,4.30
2018-10-05T02:35:04.163Z,4.30
2018-10-05T02:37:31.869Z,4.00
2018-10-05T02:39:59.557Z,4.87
2018-10-05T02:42:27.265Z,4.30
2018-10-05T02:44:55.004Z,4.53
2018-10-05T02:47:22.729Z,4.77
2018-10-05T02:49:50.502Z,4.33
2018-10-05T02:52:18.206Z,4.70
2018-10-05T02:54:45.913Z,4.20
2018-10-05T02:57:13.635Z,4.63
2018-10-05T02:59:41.369Z,4.50
2018-10-05T03:02:20.257Z,3.93
2018-10-05T03:04:47.983Z,4.23
2018-10-05T03:07:15.678Z,4.20
2018-10-05T03:09:43.378Z,4.73
2018-10-05T03:12:11.092Z,4.17
2018-10-05T03:14:38.820Z,4.20
2018-10-05T03:17:06.544Z,4.50
2018-10-05T03:19:34.312Z,4.13
2018-10-05T03:22:02.037Z,3.97
2018-10-05T03:24:29.750Z,4.73
2018-10-05T03:26:57.454Z,4.20
2018-10-05T03:29:25.259Z,4.00
2018-10-05T03:31:53.004Z,4.40
2018-10-05T03:34:20.732Z,4.53
2018-10-05T03:36:48.438Z,4.03
2018-10-05T03:39:16.142Z,4.60
2018-10-05T03:41:43.853Z,4.60
2018-10-05T03:44:11.575Z,4.87
2018-10-05T03:46:39.304Z,5.30
2018-10-05T03:49:07.015Z,3.93
2018-10-05T03:51:34.717Z,4.77
2018-10-05T03:54:02.526Z,4.60
2018-10-05T03:56:30.239Z,4.80
2018-10-05T03:58:58.007Z,4.80
2018-10-05T04:01:25.721Z,4.57
2018-10-05T04:03:53.418Z,4.80
2018-10-05T04:06:21.148Z,5.43
2018-10-05T04:08:48.857Z,6.30
2018-10-05T04:11:16.877Z,6.13
2018-10-05T04:13:44.582Z,6.40
2018-10-05T04:16:12.297Z,5.57
2018-10-05T04:18:40.020Z,5.60
2018-10-05T04:21:07.767Z,5.47
2018-10-05T04:23:35.478Z,6.00
2018-10-05T04:26:03.197Z,5.47
2018-10-05T04:28:30.988Z,5.00
2018-10-05T04:30:58.854Z,5.87
2018-10-05T04:33:26.560Z,6.03
2018-10-05T04:35:54.292Z,5.33
2018-10-05T04:38:22.016Z,5.30
2018-10-05T04:40:49.727Z,6.47
2018-10-05T04:43:17.440Z,5.87
2018-10-05T04:45:45.176Z,5.60
2018-10-05T04:48:12.876Z,6.37
2018-10-05T04:50:40.597Z,6.27
2018-10-05T04:53:08.308Z,6.17
2018-10-05T04:55:36.101Z,7.47
2018-10-05T04:58:03.918Z,6.20
2018-10-05T05:00:31.615Z,6.17
2018-10-05T05:02:59.412Z,5.97
2018-10-05T05:05:27.208Z,5.73
2018-10-05T05:07:54.964Z,6.20
2018-10-05T05:10:22.720Z,6.40
2018-10-05T05:12:50.443Z,6.27
2018-10-05T05:15:18.211Z,6.60
2018-10-05T05:17:45.956Z,7.90
2018-10-05T05:20:13.682Z,8.43
2018-10-05T05:22:41.451Z,8.83
2018-10-05T05:25:09.166Z,9.73
2018-10-05T05:27:36.993Z,9.50
2018-10-05T05:30:04.965Z,9.57
2018-10-05T05:32:32.676Z,8.93
2018-10-05T05:35:00.400Z,8.77
2018-10-05T05:37:28.117Z,8.50
2018-10-05T05:39:55.813Z,8.23
2018-10-05T05:42:23.555Z,7.53
2018-10-05T05:44:51.296Z,6.80
2018-10-05T05:47:19.053Z,7.20
2018-10-05T05:49:46.770Z,7.80
2018-10-05T05:52:14.513Z,7.40
2018-10-05T05:54:42.263Z,6.97
2018-10-05T05:57:09.996Z,7.20
2018-10-05T05:59:37.738Z,7.20
2018-10-05T06:02:05.526Z,7.27
2018-10-05T06:04:33.242Z,7.10
2018-10-05T06:07:00.991Z,7.60
2018-10-05T06:09:28.712Z,8.87
2018-10-05T06:11:56.432Z,8.53
2018-10-05T06:14:24.160Z,8.20
2018-10-05T06:16:51.904Z,9.20
2018-10-05T06:19:19.669Z,9.93
2018-10-05T06:21:47.570Z,9.47
2018-10-05T06:24:15.195Z,9.03
2018-10-05T06:26:42.919Z,8.90
2018-10-05T06:29:10.643Z,9.20
2018-10-05T06:31:38.370Z,8.43
2018-10-05T06:34:06.472Z,9.70
2018-10-05T06:36:34.212Z,9.27
2018-10-05T06:39:02.105Z,9.93
2018-10-05T06:41:29.856Z,9.90
2018-10-05T06:43:57.578Z,11.30
2018-10-05T06:46:25.310Z,11.03
2018-10-05T06:48:53.027Z,10.43
2018-10-05T06:51:20.765Z,8.77
2018-10-05T06:53:48.492Z,8.03
2018-10-05T06:56:16.230Z,6.97
2018-10-05T06:58:44.055Z,7.60
2018-10-05T07:01:11.774Z,6.53
2018-10-05T07:03:39.532Z,6.80
2018-10-05T07:06:07.282Z,6.97
2018-10-05T07:08:35.016Z,6.07
2018-10-05T07:11:02.919Z,6.37
2018-10-05T07:13:30.675Z,6.43
2018-10-05T07:15:58.480Z,5.80
2018-10-05T07:18:26.191Z,6.37
2018-10-05T07:20:53.920Z,5.73
2018-10-05T07:23:21.645Z,5.73
2018-10-05T07:25:49.360Z,6.23
2018-10-05T07:28:17.154Z,5.63
2018-10-05T07:30:44.839Z,7.37
2018-10-05T07:33:12.568Z,6.13
2018-10-05T07:35:40.286Z,5.80
2018-10-05T07:38:07.997Z,5.87
2018-10-05T07:40:35.743Z,5.60
2018-10-05T07:43:03.493Z,6.63
2018-10-05T07:45:31.229Z,5.50
2018-10-05T07:47:58.949Z,5.13
2018-10-05T07:50:26.706Z,4.87
2018-10-05T07:52:54.418Z,6.90
2018-10-05T07:55:22.187Z,5.67
2018-10-05T07:57:49.959Z,5.63
2018-10-05T08:00:17.723Z,6.23
2018-10-05T08:02:45.460Z,5.77
2018-10-05T08:05:13.203Z,6.33
2018-10-05T08:07:40.928Z,6.37
2018-10-05T08:10:08.756Z,6.00
2018-10-05T08:12:36.505Z,5.83
2018-10-05T08:15:05.018Z,5.90
2018-10-05T08:17:32.811Z,4.87
2018-10-05T08:20:00.585Z,5.63
2018-10-05T08:22:28.312Z,5.43
2018-10-05T08:24:56.052Z,6.83
2018-10-05T08:27:23.785Z,5.10
2018-10-05T08:29:51.505Z,6.07
2018-10-05T08:32:19.269Z,6.27
2018-10-05T08:34:47.050Z,7.53
2018-10-05T08:37:14.817Z,6.63
2018-10-05T08:39:42.616Z,6.00
2018-10-05T08:42:10.317Z,5.70
2018-10-05T08:44:38.042Z,6.40
2018-10-05T08:47:05.788Z,5.90
2018-10-05T08:49:33.515Z,6.27
2018-10-05T08:52:01.381Z,5.97
2018-10-05T08:54:28.978Z,5.50
2018-10-05T08:56:56.710Z,5.60
2018-10-05T08:59:27.701Z,5.63
2018-10-05T09:01:55.426Z,6.30
2018-10-05T09:04:23.149Z,5.33
2018-10-05T09:06:50.903Z,5.67
2018-10-05T09:09:18.664Z,6.57
2018-10-05T09:11:47.276Z,5.97
2018-10-05T09:14:15.048Z,5.87
2018-10-05T09:16:42.804Z,6.30
2018-10-05T09:19:10.528Z,5.63
2018-10-05T09:21:38.250Z,6.10
2018-10-05T09:24:06.071Z,6.30
2018-10-05T09:26:33.816Z,7.17
2018-10-05T09:29:01.542Z,7.00
2018-10-05T09:31:29.275Z,6.93
2018-10-05T09:33:57.050Z,6.17
2018-10-05T09:36:24.826Z,6.90
2018-10-05T09:38:52.591Z,6.20
2018-10-05T09:41:20.351Z,6.23
2018-10-05T09:43:48.088Z,5.80
2018-10-05T09:46:15.989Z,5.10
2018-10-05T09:48:43.706Z,5.27
2018-10-05T09:51:11.457Z,4.87
2018-10-05T09:53:39.191Z,5.43
2018-10-05T09:56:06.948Z,5.20
2018-10-05T09:58:34.669Z,5.30
2018-10-05T10:01:07.803Z,4.83
2018-10-05T10:03:36.526Z,4.00
2018-10-05T10:06:05.161Z,3.67
2018-10-05T10:08:32.917Z,4.07
2018-10-05T10:11:00.728Z,3.70
2018-10-05T10:13:28.534Z,4.00
2018-10-05T10:15:56.274Z,3.50
2018-10-05T10:18:24.010Z,3.87
2018-10-05T10:20:51.734Z,3.90
2018-10-05T10:23:19.484Z,4.47
2018-10-05T10:25:47.255Z,4.27
2018-10-05T10:28:15.046Z,4.80
2018-10-05T10:30:42.806Z,4.20
2018-10-05T10:33:10.529Z,3.87
2018-10-05T10:35:38.258Z,3.27
2018-10-05T10:38:06.061Z,3.97
2018-10-05T10:40:33.757Z,4.47
2018-10-05T10:43:01.534Z,3.90
2018-10-05T10:45:29.274Z,3.53
2018-10-05T10:47:57.010Z,4.10
2018-10-05T10:50:24.733Z,3.83
2018-10-05T10:52:52.543Z,3.73
2018-10-05T10:55:20.287Z,4.00
2018-10-05T10:57:47.997Z,3.70
2018-10-05T11:00:15.762Z,3.77
2018-10-05T11:02:43.522Z,3.87
2018-10-05T11:05:11.239Z,4.17
2018-10-05T11:07:39.206Z,3.40
2018-10-05T11:10:07.114Z,3.90
2018-10-05T11:12:34.942Z,3.70
2018-10-05T11:15:02.749Z,3.70
2018-10-05T11:17:30.658Z,3.70
2018-10-05T11:19:58.581Z,3.87
2018-10-05T11:22:26.360Z,3.53
2018-10-05T11:24:54.076Z,3.90
2018-10-05T11:27:21.791Z,3.77
2018-10-05T11:29:49.585Z,3.40
2018-10-05T11:32:17.322Z,3.70
2018-10-05T11:34:45.045Z,3.93
2018-10-05T11:37:12.783Z,3.80
2018-10-05T11:39:40.499Z,3.77
2018-10-05T11:42:08.206Z,3.30
2018-10-05T11:44:35.909Z,3.30
2018-10-05T11:47:03.684Z,4.00
2018-10-05T11:49:31.430Z,3.27
2018-10-05T11:51:59.294Z,3.57
2018-10-05T11:54:27.095Z,4.07
2018-10-05T11:56:54.946Z,3.70
2018-10-05T11:59:22.719Z,3.37
2018-10-05T12:01:50.597Z,3.40
2018-10-05T12:04:18.964Z,3.37
2018-10-05T12:06:46.778Z,3.57
2018-10-05T12:09:15.435Z,3.20
2018-10-05T12:11:43.249Z,3.50
2018-10-05T12:14:10.965Z,3.10
2018-10-05T12:16:39.650Z,3.67
2018-10-05T12:19:07.377Z,3.40
2018-10-05T12:21:35.095Z,3.73
2018-10-05T12:24:03.642Z,3.30
2018-10-05T12:26:33.189Z,3.70
2018-10-05T12:29:00.918Z,3.47
2018-10-05T12:31:30.802Z,3.93
2018-10-05T12:33:58.644Z,3.83
2018-10-05T12:36:26.358Z,3.73
2018-10-05T12:38:54.079Z,3.50
2018-10-05T12:41:21.808Z,3.27
2018-10-05T12:43:50.534Z,3.23
2018-10-05T12:46:18.286Z,3.60
2018-10-05T12:48:46.041Z,3.90
2018-10-05T12:51:13.774Z,3.90
2018-10-05T12:53:42.078Z,4.00
2018-10-05T12:56:10.438Z,3.47
2018-10-05T12:58:38.193Z,3.40
2018-10-05T13:01:06.655Z,3.50
2018-10-05T13:03:35.298Z,3.03
2018-10-05T13:06:03.055Z,3.47
2018-10-05T13:08:30.762Z,3.80
2018-10-05T13:10:59.290Z,3.40
2018-10-05T13:13:27.638Z,3.47
2018-10-05T13:15:55.939Z,3.20
2018-10-05T13:18:24.595Z,3.77
2018-10-05T13:20:52.353Z,3.40
2018-10-05T13:23:20.061Z,3.60
2018-10-05T13:25:47.822Z,3.50
2018-10-05T13:28:15.530Z,3.50
2018-10-05T13:30:43.277Z,3.50
2018-10-05T13:33:11.014Z,3.70
2018-10-05T13:35:38.735Z,3.70
2018-10-05T13:38:07.299Z,3.67
2018-10-05T13:40:35.038Z,3.70
2018-10-05T13:43:02.754Z,3.50
2018-10-05T13:45:30.503Z,3.93
2018-10-05T13:47:58.239Z,3.93
2018-10-05T13:50:25.979Z,4.20
2018-10-05T13:52:53.757Z,3.90
2018-10-05T13:55:21.478Z,4.10
2018-10-05T13:57:49.263Z,4.17
2018-10-05T14:00:17.537Z,3.70
2018-10-05T14:02:45.304Z,3.10
2018-10-05T14:05:13.630Z,3.40
2018-10-05T14:07:41.351Z,3.77
2018-10-05T14:10:09.094Z,3.80
2018-10-05T14:12:36.825Z,3.67
2018-10-05T14:15:04.665Z,3.77
2018-10-05T14:17:32.951Z,3.57
2018-10-05T14:20:00.687Z,3.50
2018-10-05T14:22:28.418Z,3.33
2018-10-05T14:24:57.067Z,4.30
2018-10-05T14:27:24.827Z,3.93
2018-10-05T14:29:52.556Z,4.07
2018-10-05T14:32:20.417Z,3.67
2018-10-05T14:34:48.824Z,4.13
2018-10-05T14:37:16.543Z,4.00
2018-10-05T14:39:44.255Z,3.77
2018-10-05T14:42:11.991Z,4.10
2018-10-05T14:44:39.818Z,3.90
2018-10-05T14:47:07.528Z,4.40
2018-10-05T14:49:35.396Z,3.83
2018-10-05T14:52:03.126Z,4.30
2018-10-05T14:54:30.951Z,4.03
2018-10-05T14:56:58.701Z,3.97
2018-10-05T14:59:26.385Z,4.20
2018-10-05T15:01:54.119Z,4.00
2018-10-05T15:04:21.863Z,5.87
2018-10-05T15:06:49.658Z,6.10
2018-10-05T15:09:17.379Z,6.20
2018-10-05T15:11:45.078Z,5.20
2018-10-05T15:14:12.778Z,6.30
2018-10-05T15:16:40.510Z,5.50
2018-10-05T15:19:08.210Z,6.27
2018-10-05T15:21:35.948Z,6.33
2018-10-05T15:24:03.683Z,6.17
2018-10-05T15:26:31.386Z,6.67
2018-10-05T15:28:59.094Z,6.13
2018-10-05T15:31:26.842Z,6.13
2018-10-05T15:33:54.538Z,5.93
2018-10-05T15:36:22.271Z,5.93
2018-10-05T15:38:50.021Z,5.70
2018-10-05T15:41:17.698Z,6.67
2018-10-05T15:43:45.406Z,8.23
2018-10-05T15:46:23.010Z,9.07
2018-10-05T15:48:50.746Z,8.57
2018-10-05T15:51:18.472Z,9.20
2018-10-05T15:53:46.176Z,9.80
2018-10-05T15:56:13.888Z,9.40
2018-10-05T15:58:41.591Z,10.13
2018-10-05T16:01:09.341Z,9.27
2018-10-05T16:03:37.054Z,10.50
2018-10-05T16:06:04.801Z,10.53
2018-10-05T16:08:32.489Z,10.73
2018-10-05T16:11:00.309Z,10.83
2018-10-05T16:13:28.006Z,12.13
2018-10-05T16:15:55.725Z,11.20
2018-10-05T16:18:23.525Z,11.57
2018-10-05T16:20:51.194Z,12.57
2018-10-05T16:23:18.890Z,10.97
2018-10-05T16:25:46.610Z,11.67
2018-10-05T16:28:14.343Z,12.73
2018-10-05T16:30:42.070Z,12.30
2018-10-05T16:33:09.762Z,11.80
2018-10-05T16:35:37.461Z,11.30
2018-10-05T16:38:05.324Z,10.27
2018-10-05T16:40:33.025Z,8.90
2018-10-05T16:43:00.755Z,9.70
2018-10-05T16:45:28.446Z,10.33
2018-10-05T16:47:56.170Z,12.67
2018-10-05T16:50:24.506Z,13.03
2018-10-05T16:52:52.734Z,11.50
2018-10-05T16:55:20.434Z,10.83
2018-10-05T16:57:48.149Z,10.43
2018-10-05T17:00:15.864Z,10.17
2018-10-05T17:02:43.570Z,11.73
2018-10-05T17:05:11.302Z,10.70
2018-10-05T17:07:39.011Z,11.40
2018-10-05T17:10:06.912Z,11.23
2018-10-05T17:12:34.622Z,11.07
2018-10-05T17:15:02.347Z,12.17
2018-10-05T17:17:30.057Z,12.23
2018-10-05T17:19:57.762Z,14.13
2018-10-05T17:22:25.481Z,16.50
2018-10-05T17:24:53.245Z,17.17
2018-10-05T17:27:21.003Z,17.57
2018-10-05T17:29:48.701Z,16.53
2018-10-05T17:32:16.417Z,17.40
2018-10-05T17:34:44.136Z,15.90
2018-10-05T17:37:12.922Z,15.47
2018-10-05T17:39:40.551Z,14.07
2018-10-05T17:42:08.268Z,14.47
2018-10-05T17:44:35.967Z,13.27
2018-10-05T17:47:03.677Z,13.30
2018-10-05T17:49:33.332Z,11.50
2018-10-05T17:52:01.113Z,11.10
2018-10-05T17:54:30.473Z,11.63
2018-10-05T17:56:59.864Z,11.43
2018-10-05T17:59:27.590Z,11.83
2018-10-05T18:01:55.390Z,11.80
2018-10-05T18:04:23.118Z,11.43
2018-10-05T18:06:50.862Z,11.77
2018-10-05T18:09:18.605Z,11.63
2018-10-05T18:11:46.304Z,10.73
2018-10-05T18:14:14.125Z,9.87
2018-10-05T18:16:41.831Z,8.93
2018-10-05T18:19:09.538Z,8.80
2018-10-05T18:21:37.282Z,7.93
2018-10-05T18:24:04.995Z,8.93
2018-10-05T18:26:32.715Z,10.87
2018-10-05T18:29:00.537Z,10.90
2018-10-05T18:31:28.270Z,10.93
2018-10-05T18:33:56.016Z,11.33
2018-10-05T18:36:23.757Z,10.87
2018-10-05T18:38:51.465Z,11.07
2018-10-05T18:41:19.216Z,11.17
2018-10-05T18:43:46.973Z,11.80
2018-10-05T18:46:14.722Z,11.73
2018-10-05T18:48:42.491Z,11.80
2018-10-05T18:51:10.290Z,11.73
2018-10-05T18:53:37.998Z,11.57
2018-10-05T18:56:16.946Z,10.73
2018-10-05T18:58:44.666Z,11.40
2018-10-05T19:01:12.399Z,11.67
2018-10-05T19:03:40.105Z,11.90
2018-10-05T19:06:07.829Z,12.90
2018-10-05T19:08:36.190Z,12.37
2018-10-05T19:11:03.920Z,11.63
2018-10-05T19:13:31.666Z,9.97
2018-10-05T19:15:59.404Z,8.33
2018-10-05T19:18:27.861Z,6.90
2018-10-05T19:20:55.659Z,7.30
2018-10-05T19:23:23.484Z,6.67
2018-10-05T19:25:51.298Z,6.37
2018-10-05T19:28:18.986Z,6.47
2018-10-05T19:30:46.700Z,6.50
2018-10-05T19:33:14.515Z,6.43
2018-10-05T19:35:42.227Z,6.57
2018-10-05T19:38:09.943Z,6.90
2018-10-05T19:40:37.642Z,7.07
2018-10-05T19:43:05.383Z,7.87
2018-10-05T19:45:33.098Z,7.13
2018-10-05T19:48:00.809Z,6.40
2018-10-05T19:50:28.543Z,6.10
2018-10-05T19:52:56.315Z,5.97
2018-10-05T19:55:24.003Z,5.50
2018-10-05T19:57:51.718Z,5.23
2018-10-05T20:00:19.442Z,5.20
2018-10-05T20:02:47.142Z,4.70
2018-10-05T20:05:14.855Z,4.50
2018-10-05T20:07:42.570Z,4.90
2018-10-05T20:10:10.344Z,4.90
2018-10-05T20:12:38.042Z,4.37
2018-10-05T20:15:05.953Z,4.63
2018-10-05T20:17:33.747Z,4.70
2018-10-05T20:20:01.456Z,4.50
2018-10-05T20:22:29.162Z,5.03
2018-10-05T20:24:56.865Z,5.13
2018-10-05T20:27:24.573Z,5.13
2018-10-05T20:29:52.278Z,4.70
2018-10-05T20:32:19.997Z,4.83
2018-10-05T20:34:47.698Z,5.47
2018-10-05T20:37:20.130Z,5.40
2018-10-05T20:39:48.732Z,5.90
2018-10-05T20:42:16.459Z,5.57
2018-10-05T20:44:44.192Z,6.97
2018-10-05T20:47:11.922Z,6.03
2018-10-05T20:49:39.742Z,6.50
2018-10-05T20:52:07.455Z,5.73
2018-10-05T20:54:35.165Z,5.80
2018-10-05T20:57:02.866Z,6.33
2018-10-05T20:59:30.566Z,6.40
2018-10-05T21:01:58.274Z,6.63
2018-10-05T21:04:26.090Z,7.23
2018-10-05T21:06:53.939Z,7.30
2018-10-05T21:09:21.658Z,6.80
2018-10-05T21:11:49.425Z,6.73
2018-10-05T21:14:17.157Z,7.10
2018-10-05T21:16:44.925Z,7.17
2018-10-05T21:19:12.659Z,7.47
2018-10-05T21:21:40.362Z,7.13
2018-10-05T21:24:08.105Z,7.77
2018-10-05T21:26:35.825Z,7.10
2018-10-05T21:29:03.711Z,8.30
2018-10-05T21:31:31.486Z,7.57
2018-10-05T21:33:59.185Z,6.77
2018-10-05T21:36:26.902Z,7.50
2018-10-05T21:38:54.708Z,7.80
2018-10-05T21:41:22.426Z,8.03
2018-10-05T21:43:50.149Z,7.47
2018-10-05T21:46:17.938Z,6.97
2018-10-05T21:48:45.694Z,6.70
2018-10-05T21:51:13.528Z,6.37
2018-10-05T21:53:41.306Z,6.70
2018-10-05T21:56:09.031Z,6.27
2018-10-05T21:58:36.793Z,6.27
2018-10-05T22:01:04.551Z,6.93
2018-10-05T22:03:32.406Z,7.07
2018-10-05T22:06:00.204Z,6.87
2018-10-05T22:08:28.009Z,6.83
2018-10-05T22:10:55.764Z,6.73
2018-10-05T22:13:23.479Z,6.77
2018-10-05T22:15:51.191Z,5.67
2018-10-05T22:18:18.903Z,6.30
2018-10-05T22:20:46.640Z,5.33
2018-10-05T22:23:14.344Z,5.93
2018-10-05T22:25:42.046Z,6.17
2018-10-05T22:28:09.742Z,6.20
2018-10-05T22:30:37.598Z,6.43
2018-10-05T22:33:05.463Z,6.47
2018-10-05T22:35:34.064Z,6.23
2018-10-05T22:38:01.922Z,6.13
2018-10-05T22:40:30.161Z,6.17
2018-10-05T22:42:58.027Z,6.30
2018-10-05T22:45:25.878Z,5.60
2018-10-05T22:47:53.743Z,6.10
2018-10-05T22:50:21.665Z,5.87
2018-10-05T22:52:49.510Z,5.67
2018-10-05T22:55:17.378Z,5.67
2018-10-05T22:57:45.238Z,6.37
2018-10-05T23:00:13.132Z,5.80
2018-10-05T23:02:41.009Z,5.20
2018-10-05T23:05:08.895Z,5.73
2018-10-05T23:07:36.767Z,5.83
2018-10-05T23:10:05.002Z,5.97
2018-10-05T23:12:32.878Z,5.80
2018-10-05T23:15:02.247Z,5.70
2018-10-05T23:17:30.131Z,5.70
2018-10-05T23:19:58.000Z,5.53
2018-10-05T23:22:25.959Z,5.50
2018-10-05T23:24:53.818Z,5.13
2018-10-05T23:27:21.683Z,6.43
2018-10-05T23:29:49.579Z,5.57
2018-10-05T23:32:17.471Z,5.50
2018-10-05T23:34:45.350Z,5.27
2018-10-05T23:37:13.223Z,5.70
2018-10-05T23:39:42.087Z,5.60
2018-10-05T23:42:10.044Z,5.17
2018-10-05T23:44:37.906Z,4.93
2018-10-05T23:47:06.027Z,5.17
2018-10-05T23:49:33.962Z,5.20
2018-10-05T23:52:12.838Z,5.30
2018-10-05T23:54:40.689Z,5.17
2018-10-05T23:57:08.542Z,5.60
2018-10-05T23:59:36.402Z,4.90
